TFN weather

Tenerife Norte Airport
Tenerife Island, Canary Islands, Spain

Public forecast

Using degrees Celsius for public forecast. Weather courtesy of forecast.io.

METAR (pilot weather report)

Retrieved 2019/05/22 05:39 UTC (0 seconds ago):

GCXO 220539Z 31013KT 9999 2000NW -DZ BCFG FEW002 BKN006 14/14 Q1019 TEMPO BKN012

TAF (pilot weather forecast)

Retrieved 2019/05/22 03:27 UTC (2 hours ago):

TAF GCXO 220200Z 2203/2303 32015KT 9999 BKN010 TX19/2211Z TN14/2203Z PROB40 TEMPO 2203/2303 BKN016 PROB40 TEMPO 2203/2208 1500 DZ BCFG BKN004